createdAt,value
2018-11-20T00:00:03.108Z,0.00
2018-11-20T00:01:03.372Z,0.00
2018-11-20T00:02:03.108Z,0.00
2018-11-20T00:03:03.140Z,0.00
2018-11-20T00:04:03.262Z,0.00
2018-11-20T00:05:03.165Z,0.00
2018-11-20T00:06:03.343Z,0.00
2018-11-20T00:07:03.296Z,0.00
2018-11-20T00:08:03.194Z,0.00
2018-11-20T00:09:03.206Z,0.00
2018-11-20T00:10:03.326Z,0.00
2018-11-20T00:11:03.263Z,0.00
2018-11-20T00:12:03.219Z,0.00
2018-11-20T00:13:03.251Z,0.00
2018-11-20T00:14:03.235Z,0.00
2018-11-20T00:15:03.530Z,0.00
2018-11-20T00:16:03.281Z,0.00
2018-11-20T00:17:03.409Z,0.00
2018-11-20T00:18:03.296Z,0.00
2018-11-20T00:19:03.315Z,0.00
2018-11-20T00:20:03.457Z,0.00
2018-11-20T00:21:03.334Z,0.00
2018-11-20T00:22:03.342Z,0.00
2018-11-20T00:23:03.353Z,0.00
2018-11-20T00:24:03.365Z,0.00
2018-11-20T00:25:03.650Z,0.00
2018-11-20T00:26:03.508Z,0.00
2018-11-20T00:27:03.397Z,0.00
2018-11-20T00:28:03.532Z,0.00
2018-11-20T00:29:03.428Z,0.00
2018-11-20T00:30:03.623Z,0.00
2018-11-20T00:31:03.444Z,0.00
2018-11-20T00:32:03.462Z,0.00
2018-11-20T00:33:03.588Z,0.00
2018-11-20T00:34:03.469Z,0.00
2018-11-20T00:35:03.547Z,0.00
2018-11-20T00:36:03.620Z,0.00
2018-11-20T00:37:03.788Z,0.00
2018-11-20T00:38:03.516Z,0.00
2018-11-20T00:39:03.661Z,0.00
2018-11-20T00:40:03.666Z,0.00
2018-11-20T00:41:03.544Z,0.00
2018-11-20T00:42:03.838Z,0.00
2018-11-20T00:43:03.591Z,0.00
2018-11-20T00:44:03.606Z,0.00
2018-11-20T00:45:03.726Z,0.00
2018-11-20T00:46:03.615Z,0.00
2018-11-20T00:47:03.776Z,0.00
2018-11-20T00:48:03.636Z,0.00
2018-11-20T00:49:03.640Z,0.00
2018-11-20T00:50:03.669Z,0.00
2018-11-20T00:51:03.801Z,0.00
2018-11-20T00:52:03.691Z,0.00
2018-11-20T00:53:03.967Z,0.00
2018-11-20T00:54:03.830Z,0.00
2018-11-20T00:55:03.718Z,0.00
2018-11-20T00:56:03.737Z,0.00
2018-11-20T00:57:03.752Z,0.00
2018-11-20T00:58:03.853Z,0.00
2018-11-20T00:59:03.765Z,0.00
2018-11-20T01:00:03.774Z,0.00
2018-11-20T01:01:03.911Z,0.00
2018-11-20T01:02:03.797Z,0.00
2018-11-20T01:03:03.905Z,0.00
2018-11-20T01:04:03.827Z,0.00
2018-11-20T01:05:03.822Z,0.00
2018-11-20T01:06:03.852Z,0.00
2018-11-20T01:07:03.849Z,0.00
2018-11-20T01:08:03.981Z,0.00
2018-11-20T01:09:03.869Z,0.00
2018-11-20T01:10:03.922Z,0.00
2018-11-20T01:11:04.023Z,0.00
2018-11-20T01:12:03.904Z,0.00
2018-11-20T01:13:04.093Z,0.00
2018-11-20T01:14:04.300Z,0.00
2018-11-20T01:15:03.958Z,0.00
2018-11-20T01:16:03.963Z,0.00
2018-11-20T01:17:04.112Z,0.00
2018-11-20T01:18:03.998Z,0.00
2018-11-20T01:19:04.115Z,0.00
2018-11-20T01:20:04.002Z,0.00
2018-11-20T01:21:04.008Z,0.00
2018-11-20T01:22:04.190Z,0.00
2018-11-20T01:23:04.086Z,0.00
2018-11-20T01:24:04.175Z,0.00
2018-11-20T01:25:04.054Z,0.00
2018-11-20T01:26:04.064Z,0.00
2018-11-20T01:27:04.364Z,0.00
2018-11-20T01:28:04.082Z,0.00
2018-11-20T01:29:04.109Z,0.00
2018-11-20T01:30:04.118Z,0.00
2018-11-20T01:31:04.167Z,0.00
2018-11-20T01:32:04.143Z,0.00
2018-11-20T01:33:04.301Z,0.00
2018-11-20T01:34:04.286Z,0.00
2018-11-20T01:35:04.180Z,0.00
2018-11-20T01:36:04.188Z,0.00
2018-11-20T01:37:04.320Z,0.00
2018-11-20T01:38:04.366Z,0.00
2018-11-20T01:39:04.344Z,0.00
2018-11-20T01:40:04.273Z,0.00
2018-11-20T01:41:04.368Z,0.00
2018-11-20T01:42:04.374Z,0.00
2018-11-20T01:43:04.367Z,0.00
2018-11-20T01:44:04.293Z,0.00
2018-11-20T01:45:04.414Z,0.00
2018-11-20T01:46:04.299Z,0.00
2018-11-20T01:47:04.304Z,0.00
2018-11-20T01:48:04.470Z,0.00
2018-11-20T01:49:04.343Z,0.00
2018-11-20T01:50:04.337Z,0.00
2018-11-20T01:51:04.357Z,0.00
2018-11-20T01:52:04.388Z,0.00
2018-11-20T01:53:04.484Z,0.00
2018-11-20T01:54:04.382Z,0.00
2018-11-20T01:55:04.405Z,0.00
2018-11-20T01:56:04.540Z,0.00
2018-11-20T01:57:04.443Z,0.00
2018-11-20T01:58:04.655Z,0.00
2018-11-20T01:59:04.571Z,0.00
2018-11-20T02:00:04.453Z,0.00
2018-11-20T02:01:04.468Z,0.00
2018-11-20T02:02:04.603Z,0.00
2018-11-20T02:03:04.646Z,0.00
2018-11-20T02:04:04.658Z,0.00
2018-11-20T02:05:04.634Z,0.00
2018-11-20T02:06:04.653Z,0.00
2018-11-20T02:07:04.535Z,0.00
2018-11-20T02:08:04.717Z,0.00
2018-11-20T02:09:04.570Z,0.00
2018-11-20T02:10:04.693Z,0.00
2018-11-20T02:11:04.710Z,0.00
2018-11-20T02:12:04.591Z,0.00
2018-11-20T02:13:04.663Z,0.00
2018-11-20T02:14:04.617Z,0.00
2018-11-20T02:15:04.753Z,0.00
2018-11-20T02:16:04.769Z,0.00
2018-11-20T02:17:04.656Z,0.00
2018-11-20T02:18:04.765Z,0.00
2018-11-20T02:19:04.677Z,0.00
2018-11-20T02:20:04.828Z,0.00
2018-11-20T02:21:04.712Z,0.00
2018-11-20T02:22:04.701Z,0.00
2018-11-20T02:23:04.777Z,0.00
2018-11-20T02:24:04.857Z,0.00
2018-11-20T02:25:04.755Z,0.00
2018-11-20T02:26:04.874Z,0.00
2018-11-20T02:27:04.764Z,0.00
2018-11-20T02:28:08.603Z,0.00
2018-11-20T02:29:04.913Z,0.00
2018-11-20T02:30:04.924Z,0.00
2018-11-20T02:31:04.799Z,0.00
2018-11-20T02:32:04.824Z,0.00
2018-11-20T02:33:04.934Z,0.00
2018-11-20T02:34:04.881Z,0.00
2018-11-20T02:35:04.857Z,0.00
2018-11-20T02:36:04.869Z,0.00
2018-11-20T02:37:04.996Z,0.00
2018-11-20T02:38:04.988Z,0.00
2018-11-20T02:39:05.024Z,0.00
2018-11-20T02:40:04.919Z,0.00
2018-11-20T02:41:04.975Z,0.00
2018-11-20T02:42:04.945Z,0.00
2018-11-20T02:43:05.041Z,0.00
2018-11-20T02:44:04.945Z,0.00
2018-11-20T02:45:04.965Z,0.00
2018-11-20T02:46:05.101Z,0.00
2018-11-20T02:47:05.050Z,0.00
2018-11-20T02:48:05.110Z,0.00
2018-11-20T02:49:05.016Z,0.00
2018-11-20T02:50:05.022Z,0.00
2018-11-20T02:51:05.028Z,0.00
2018-11-20T02:52:05.045Z,0.00
2018-11-20T02:53:05.148Z,0.00
2018-11-20T02:54:05.066Z,0.00
2018-11-20T02:55:05.202Z,0.00
2018-11-20T02:56:05.099Z,0.00
2018-11-20T02:57:05.102Z,0.00
2018-11-20T02:58:05.388Z,0.00
2018-11-20T02:59:05.121Z,0.00
2018-11-20T03:00:05.132Z,0.00
2018-11-20T03:01:05.148Z,0.00
2018-11-20T03:02:05.145Z,0.00
2018-11-20T03:03:05.441Z,0.00
2018-11-20T03:04:05.184Z,0.00
2018-11-20T03:05:05.311Z,0.00
2018-11-20T03:06:05.206Z,0.00
2018-11-20T03:07:05.212Z,0.00
2018-11-20T03:08:05.327Z,0.00
2018-11-20T03:09:05.362Z,0.00
2018-11-20T03:10:05.257Z,0.00
2018-11-20T03:11:05.259Z,0.00
2018-11-20T03:12:05.286Z,0.00
2018-11-20T03:13:05.553Z,0.00
2018-11-20T03:14:05.415Z,0.00
2018-11-20T03:15:05.300Z,0.00
2018-11-20T03:16:05.307Z,0.00
2018-11-20T03:17:05.449Z,0.00
2018-11-20T03:18:05.565Z,0.00
2018-11-20T03:19:05.342Z,0.00
2018-11-20T03:20:05.484Z,0.00
2018-11-20T03:21:05.379Z,0.00
2018-11-20T03:22:05.394Z,0.00
2018-11-20T03:23:05.496Z,0.00
2018-11-20T03:24:05.529Z,0.00
2018-11-20T03:25:05.427Z,0.00
2018-11-20T03:26:05.437Z,0.00
2018-11-20T03:27:05.675Z,0.00
2018-11-20T03:28:05.510Z,0.00
2018-11-20T03:29:05.463Z,0.00
2018-11-20T03:30:05.472Z,0.00
2018-11-20T03:31:05.480Z,0.00
2018-11-20T03:32:05.497Z,0.00
2018-11-20T03:33:05.788Z,0.00
2018-11-20T03:34:05.521Z,0.00
2018-11-20T03:35:05.654Z,0.00
2018-11-20T03:36:05.596Z,0.00
2018-11-20T03:37:05.678Z,0.00
2018-11-20T03:38:05.786Z,0.00
2018-11-20T03:39:05.581Z,0.00
2018-11-20T03:40:05.587Z,0.00
2018-11-20T03:41:05.608Z,0.00
2018-11-20T03:42:05.616Z,0.00
2018-11-20T03:43:05.848Z,0.00
2018-11-20T03:44:05.627Z,0.00
2018-11-20T03:45:05.639Z,0.00
2018-11-20T03:46:05.683Z,0.00
2018-11-20T03:47:05.686Z,0.00
2018-11-20T03:48:05.912Z,0.00
2018-11-20T03:49:05.692Z,0.00
2018-11-20T03:50:05.744Z,0.00
2018-11-20T03:51:05.732Z,0.00
2018-11-20T03:52:05.718Z,0.00
2018-11-20T03:53:05.880Z,0.00
2018-11-20T03:54:05.741Z,0.00
2018-11-20T03:55:05.883Z,0.00
2018-11-20T03:56:05.788Z,0.00
2018-11-20T03:57:05.781Z,0.00
2018-11-20T03:58:05.885Z,0.00
2018-11-20T03:59:05.812Z,0.00
2018-11-20T04:00:05.825Z,0.00
2018-11-20T04:01:05.958Z,0.00
2018-11-20T04:02:05.837Z,0.00
2018-11-20T04:03:05.951Z,0.00
2018-11-20T04:04:05.860Z,0.00
2018-11-20T04:05:05.995Z,0.00
2018-11-20T04:06:05.896Z,0.00
2018-11-20T04:07:06.019Z,0.00
2018-11-20T04:08:06.018Z,0.00
2018-11-20T04:09:05.919Z,0.00
2018-11-20T04:10:06.053Z,0.00
2018-11-20T04:11:05.962Z,0.00
2018-11-20T04:12:05.965Z,0.00
2018-11-20T04:13:06.186Z,0.00
2018-11-20T04:14:06.104Z,0.00
2018-11-20T04:15:05.997Z,0.00
2018-11-20T04:16:06.007Z,0.00
2018-11-20T04:17:06.014Z,0.00
2018-11-20T04:18:06.299Z,0.00
2018-11-20T04:19:06.162Z,0.00
2018-11-20T04:20:06.070Z,0.00
2018-11-20T04:21:06.065Z,0.00
2018-11-20T04:22:06.192Z,0.00
2018-11-20T04:23:06.193Z,0.00
2018-11-20T04:24:06.094Z,0.00
2018-11-20T04:25:06.092Z,0.00
2018-11-20T04:26:06.242Z,0.00
2018-11-20T04:27:06.255Z,0.00
2018-11-20T04:28:06.234Z,0.00
2018-11-20T04:29:06.145Z,0.00
2018-11-20T04:30:06.158Z,0.00
2018-11-20T04:31:06.215Z,0.00
2018-11-20T04:32:06.308Z,0.00
2018-11-20T04:33:06.317Z,0.00
2018-11-20T04:34:06.256Z,0.00
2018-11-20T04:35:06.236Z,0.00
2018-11-20T04:36:06.361Z,0.00
2018-11-20T04:37:06.350Z,0.00
2018-11-20T04:38:06.261Z,0.00
2018-11-20T04:39:06.393Z,0.00
2018-11-20T04:40:06.403Z,0.00
2018-11-20T04:41:06.338Z,0.00
2018-11-20T04:42:06.445Z,0.00
2018-11-20T04:43:06.316Z,0.00
2018-11-20T04:44:06.319Z,0.00
2018-11-20T04:45:06.336Z,0.00
2018-11-20T04:46:06.348Z,0.00
2018-11-20T04:47:06.637Z,0.00
2018-11-20T04:48:06.365Z,0.00
2018-11-20T04:49:06.378Z,0.00
2018-11-20T04:50:06.543Z,0.00
2018-11-20T04:51:06.400Z,0.00
2018-11-20T04:52:06.564Z,0.00
2018-11-20T04:53:06.435Z,0.00
2018-11-20T04:54:06.437Z,0.00
2018-11-20T04:55:06.574Z,0.00
2018-11-20T04:56:06.466Z,0.00
2018-11-20T04:57:06.702Z,0.00
2018-11-20T04:58:06.483Z,0.00
2018-11-20T04:59:06.510Z,0.00
2018-11-20T05:00:06.635Z,0.00
2018-11-20T05:01:06.532Z,0.00
2018-11-20T05:02:06.805Z,0.00
2018-11-20T05:03:06.666Z,0.00
2018-11-20T05:04:06.678Z,0.00
2018-11-20T05:05:06.695Z,0.00
2018-11-20T05:06:06.587Z,0.00
2018-11-20T05:07:06.690Z,0.00
2018-11-20T05:08:06.607Z,0.00
2018-11-20T05:09:06.625Z,0.00
2018-11-20T05:10:06.748Z,0.00
2018-11-20T05:11:06.764Z,0.00
2018-11-20T05:12:06.873Z,0.00
2018-11-20T05:13:06.733Z,0.00
2018-11-20T05:15:06.679Z,0.00
2018-11-20T05:16:06.742Z,0.00
2018-11-20T05:17:06.816Z,0.00
2018-11-20T05:18:06.839Z,0.00
2018-11-20T05:19:06.780Z,0.00
2018-11-20T05:20:06.736Z,0.00
2018-11-20T05:21:06.750Z,0.00
2018-11-20T05:22:06.774Z,0.00
2018-11-20T05:23:06.837Z,0.00
2018-11-20T05:24:06.792Z,0.00
2018-11-20T05:25:06.806Z,0.00
2018-11-20T05:26:06.818Z,0.00
2018-11-20T05:27:06.947Z,0.00
2018-11-20T05:28:07.014Z,0.00
2018-11-20T05:29:06.972Z,0.00
2018-11-20T05:30:06.865Z,0.00
2018-11-20T05:31:06.958Z,0.00
2018-11-20T05:32:06.887Z,0.00
2018-11-20T05:33:07.018Z,0.00
2018-11-20T05:34:07.031Z,0.00
2018-11-20T05:35:07.037Z,0.00
2018-11-20T05:36:07.050Z,0.00
2018-11-20T05:37:06.960Z,0.00
2018-11-20T05:38:07.008Z,0.00
2018-11-20T05:39:06.974Z,0.00
2018-11-20T05:40:07.061Z,0.00
2018-11-20T05:41:07.003Z,0.00
2018-11-20T05:42:06.995Z,0.00
2018-11-20T05:43:07.110Z,0.00
2018-11-20T05:44:07.014Z,0.00
2018-11-20T05:45:07.162Z,0.00
2018-11-20T05:46:07.060Z,0.00
2018-11-20T05:47:07.052Z,0.00
2018-11-20T05:48:07.070Z,0.00
2018-11-20T05:49:07.350Z,0.00
2018-11-20T05:50:07.090Z,0.00
2018-11-20T05:51:07.224Z,0.00
2018-11-20T05:52:07.104Z,0.00
2018-11-20T05:53:07.248Z,0.00
2018-11-20T05:54:07.253Z,0.00
2018-11-20T05:55:07.163Z,0.00
2018-11-20T05:56:07.163Z,0.00
2018-11-20T05:57:07.295Z,0.00
2018-11-20T05:58:07.360Z,0.00
2018-11-20T05:59:07.293Z,0.00
2018-11-20T06:00:07.223Z,0.00
2018-11-20T06:01:07.324Z,0.00
2018-11-20T06:02:07.236Z,0.00
2018-11-20T06:03:07.368Z,0.00
2018-11-20T06:04:07.257Z,0.00
2018-11-20T06:05:07.268Z,0.00
2018-11-20T06:06:07.484Z,0.00
2018-11-20T06:07:07.416Z,0.00
2018-11-20T06:08:07.312Z,0.00
2018-11-20T06:09:07.336Z,0.00
2018-11-20T06:10:07.450Z,0.00
2018-11-20T06:11:07.438Z,0.00
2018-11-20T06:12:07.343Z,0.00
2018-11-20T06:13:07.479Z,0.00
2018-11-20T06:14:07.374Z,0.00
2018-11-20T06:15:07.508Z,0.00
2018-11-20T06:16:07.506Z,0.00
2018-11-20T06:17:07.533Z,0.00
2018-11-20T06:18:07.421Z,0.00
2018-11-20T06:19:07.529Z,0.00
2018-11-20T06:20:07.567Z,0.00
2018-11-20T06:21:07.680Z,0.00
2018-11-20T06:22:07.585Z,0.00
2018-11-20T06:23:07.603Z,0.00
2018-11-20T06:24:07.488Z,0.00
2018-11-20T06:25:07.497Z,0.00
2018-11-20T06:26:07.602Z,0.00
2018-11-20T06:27:07.527Z,0.00
2018-11-20T06:28:07.571Z,0.00
2018-11-20T06:29:07.676Z,0.00
2018-11-20T06:30:07.550Z,0.00
2018-11-20T06:31:07.683Z,0.00
2018-11-20T06:32:07.703Z,0.00
2018-11-20T06:33:07.715Z,0.00
2018-11-20T06:34:07.605Z,0.00
2018-11-20T06:35:07.683Z,0.00
2018-11-20T06:36:07.726Z,0.00
2018-11-20T06:37:07.639Z,0.00
2018-11-20T06:38:07.646Z,0.00
2018-11-20T06:39:07.646Z,0.00
2018-11-20T06:40:07.793Z,0.00
2018-11-20T06:41:07.715Z,0.00
2018-11-20T06:42:07.744Z,0.00
2018-11-20T06:43:07.706Z,0.00
2018-11-20T06:44:07.866Z,0.00
2018-11-20T06:45:07.739Z,0.00
2018-11-20T06:46:07.751Z,0.00
2018-11-20T06:47:07.911Z,0.00
2018-11-20T06:48:07.773Z,0.00
2018-11-20T06:49:07.887Z,0.00
2018-11-20T06:50:07.914Z,0.00
2018-11-20T06:51:07.794Z,0.00
2018-11-20T06:52:07.812Z,0.00
2018-11-20T06:53:08.059Z,0.00
2018-11-20T06:54:07.931Z,0.00
2018-11-20T06:55:07.847Z,0.00
2018-11-20T06:56:07.865Z,0.00
2018-11-20T06:57:07.938Z,0.00
2018-11-20T06:58:07.875Z,0.00
2018-11-20T06:59:08.116Z,0.00
2018-11-20T07:00:07.910Z,0.00
2018-11-20T07:01:08.040Z,0.00
2018-11-20T07:02:07.930Z,0.00
2018-11-20T07:03:08.061Z,0.00
2018-11-20T07:04:07.992Z,0.00
2018-11-20T07:05:08.078Z,0.00
2018-11-20T07:06:08.244Z,0.00
2018-11-20T07:07:08.008Z,0.00
2018-11-20T07:08:08.171Z,0.00
2018-11-20T07:09:08.024Z,0.00
2018-11-20T07:10:08.037Z,0.00
2018-11-20T07:11:08.182Z,0.00
2018-11-20T07:12:08.046Z,0.00
2018-11-20T07:13:08.053Z,0.00
2018-11-20T07:14:08.188Z,0.00
2018-11-20T07:15:08.289Z,0.00
2018-11-20T07:16:08.629Z,0.00
2018-11-20T07:17:08.223Z,0.00
2018-11-20T07:18:08.231Z,0.00
2018-11-20T07:19:08.130Z,0.00
2018-11-20T07:20:08.132Z,0.00
2018-11-20T07:21:08.312Z,0.00
2018-11-20T07:22:08.160Z,0.00
2018-11-20T07:23:08.181Z,0.00
2018-11-20T07:24:08.299Z,0.00
2018-11-20T07:25:08.195Z,0.00
2018-11-20T07:26:08.342Z,0.00
2018-11-20T07:27:08.333Z,0.00
2018-11-20T07:28:08.347Z,0.00
2018-11-20T07:29:08.226Z,0.00
2018-11-20T07:30:08.289Z,0.00
2018-11-20T07:31:08.438Z,0.00
2018-11-20T07:32:08.281Z,0.00
2018-11-20T07:33:08.274Z,0.00
2018-11-20T07:34:08.297Z,0.00
2018-11-20T07:35:08.339Z,0.00
2018-11-20T07:36:08.687Z,0.00
2018-11-20T07:37:08.463Z,0.00
2018-11-20T07:38:08.334Z,0.00
2018-11-20T07:39:08.358Z,0.00
2018-11-20T07:40:08.352Z,0.00
2018-11-20T07:41:08.413Z,0.00
2018-11-20T07:42:08.381Z,0.00
2018-11-20T07:43:08.406Z,0.00
2018-11-20T07:44:08.574Z,0.00
2018-11-20T07:45:08.406Z,0.00
2018-11-20T07:46:08.523Z,4.00
2018-11-20T07:47:08.449Z,0.00
2018-11-20T07:48:08.459Z,0.00
2018-11-20T07:49:08.477Z,4.00
2018-11-20T07:50:08.470Z,0.00
2018-11-20T07:51:08.586Z,4.00
2018-11-20T07:52:08.507Z,4.00
2018-11-20T07:53:08.497Z,4.00
2018-11-20T07:54:08.528Z,8.00
2018-11-20T07:55:08.682Z,8.00
2018-11-20T07:56:08.806Z,12.00
2018-11-20T07:57:08.550Z,20.00
2018-11-20T07:58:08.590Z,24.00
2018-11-20T07:59:08.567Z,36.00
2018-11-20T08:00:08.593Z,48.00
2018-11-20T08:01:08.744Z,60.00
2018-11-20T08:02:08.638Z,72.00
2018-11-20T08:03:08.608Z,76.00
2018-11-20T08:04:08.624Z,104.00
2018-11-20T08:05:08.765Z,124.00
2018-11-20T08:06:08.812Z,140.00
2018-11-20T08:07:08.785Z,160.00
2018-11-20T08:08:08.666Z,160.00
2018-11-20T08:09:08.692Z,156.00
2018-11-20T08:10:08.700Z,172.00
2018-11-20T08:11:08.888Z,184.00
2018-11-20T08:12:08.764Z,188.00
2018-11-20T08:13:08.859Z,200.00
2018-11-20T08:14:08.749Z,192.00
2018-11-20T08:15:08.767Z,192.00
2018-11-20T08:16:09.035Z,184.00
2018-11-20T08:17:08.775Z,216.00
2018-11-20T08:18:08.914Z,220.00
2018-11-20T08:19:08.794Z,236.00
2018-11-20T08:20:08.933Z,288.00
2018-11-20T08:21:08.995Z,312.00
2018-11-20T08:22:08.828Z,312.00
2018-11-20T08:23:08.846Z,348.00
2018-11-20T08:24:08.852Z,412.00
2018-11-20T08:25:08.976Z,436.00
2018-11-20T08:26:09.159Z,408.00
2018-11-20T08:27:09.012Z,368.00
2018-11-20T08:28:08.906Z,404.00
2018-11-20T08:29:08.905Z,452.00
2018-11-20T08:30:09.095Z,504.00
2018-11-20T08:31:09.123Z,528.00
2018-11-20T08:32:08.966Z,504.00
2018-11-20T08:33:08.964Z,612.00
2018-11-20T08:34:09.130Z,540.00
2018-11-20T08:35:09.188Z,592.00
2018-11-20T08:36:08.986Z,584.00
2018-11-20T08:37:09.009Z,588.00
2018-11-20T08:38:09.015Z,704.00
2018-11-20T08:39:09.044Z,632.00
2018-11-20T08:40:09.185Z,752.00
2018-11-20T08:41:09.052Z,820.00
2018-11-20T08:42:09.243Z,868.00
2018-11-20T08:43:09.075Z,816.00
2018-11-20T08:44:09.205Z,824.00
2018-11-20T08:45:09.119Z,768.00
2018-11-20T08:46:09.259Z,716.00
2018-11-20T08:47:09.121Z,732.00
2018-11-20T08:48:09.162Z,732.00
2018-11-20T08:49:09.144Z,712.00
2018-11-20T08:50:09.166Z,728.00
2018-11-20T08:51:09.238Z,752.00
2018-11-20T08:52:09.187Z,708.00
2018-11-20T08:53:09.197Z,828.00
2018-11-20T08:54:09.223Z,872.00
2018-11-20T08:55:09.338Z,940.00
2018-11-20T08:56:09.385Z,780.00
2018-11-20T08:57:09.440Z,792.00
2018-11-20T08:58:09.260Z,944.00
2018-11-20T08:59:09.262Z,1048.00
2018-11-20T09:00:09.267Z,1116.00
2018-11-20T09:01:09.561Z,1124.00
2018-11-20T09:02:09.460Z,1028.00
2018-11-20T09:03:09.518Z,1208.00
2018-11-20T09:04:09.322Z,1068.00
2018-11-20T09:05:09.459Z,1136.00
2018-11-20T09:06:09.512Z,1244.00
2018-11-20T09:07:09.346Z,1268.00
2018-11-20T09:08:09.489Z,1924.00
2018-11-20T09:09:09.376Z,1764.00
2018-11-20T09:10:09.536Z,1676.00
2018-11-20T09:11:09.557Z,1508.00
2018-11-20T09:12:09.453Z,1672.00
2018-11-20T09:13:09.434Z,2016.00
2018-11-20T09:14:09.568Z,2280.00
2018-11-20T09:15:09.447Z,2328.00
2018-11-20T09:16:09.609Z,2240.00
2018-11-20T09:17:09.480Z,2140.00
2018-11-20T09:18:09.495Z,1912.00
2018-11-20T09:19:09.623Z,1804.00
2018-11-20T09:20:09.508Z,1672.00
2018-11-20T09:21:09.706Z,1972.00
2018-11-20T09:22:09.663Z,2336.00
2018-11-20T09:23:09.547Z,2744.00
2018-11-20T09:24:09.561Z,2724.00
2018-11-20T09:25:09.563Z,2484.00
2018-11-20T09:26:09.684Z,2868.00
2018-11-20T09:27:09.726Z,3252.00
2018-11-20T09:28:09.606Z,3208.00
2018-11-20T09:29:09.745Z,3524.00
2018-11-20T09:30:09.629Z,3380.00
2018-11-20T09:31:09.838Z,3792.00
2018-11-20T09:32:09.673Z,3464.00
2018-11-20T09:33:09.688Z,4044.00
2018-11-20T09:34:09.705Z,3256.00
2018-11-20T09:35:09.835Z,2744.00
2018-11-20T09:36:09.900Z,2752.00
2018-11-20T09:37:09.727Z,2632.00
2018-11-20T09:38:09.728Z,2492.00
2018-11-20T09:39:09.873Z,2340.00
2018-11-20T09:40:09.765Z,2472.00
2018-11-20T09:41:09.998Z,2524.00
2018-11-20T09:42:09.912Z,2512.00
2018-11-20T09:43:09.796Z,2152.00
2018-11-20T09:44:09.806Z,1976.00
2018-11-20T09:45:09.944Z,1912.00
2018-11-20T09:46:10.109Z,1832.00
2018-11-20T09:47:09.970Z,2096.00
2018-11-20T09:48:09.865Z,2284.00
2018-11-20T09:49:09.890Z,2588.00
2018-11-20T09:50:10.010Z,2824.00
2018-11-20T09:51:10.050Z,2828.00
2018-11-20T09:52:10.014Z,2736.00
2018-11-20T09:53:09.928Z,2700.00
2018-11-20T09:54:10.089Z,3044.00
2018-11-20T09:55:09.951Z,3072.00
2018-11-20T09:56:10.129Z,3540.00
2018-11-20T09:57:09.974Z,4372.00
2018-11-20T09:58:09.992Z,5696.00
2018-11-20T09:59:10.002Z,6212.00
2018-11-20T10:00:10.011Z,6036.00
2018-11-20T10:01:10.135Z,6612.00
2018-11-20T10:02:10.030Z,5764.00
2018-11-20T10:03:10.172Z,5960.00
2018-11-20T10:04:10.070Z,5856.00
2018-11-20T10:05:10.087Z,5568.00
2018-11-20T10:06:10.196Z,5524.00
2018-11-20T10:07:10.231Z,4988.00
2018-11-20T10:08:10.240Z,5308.00
2018-11-20T10:09:10.137Z,5424.00
2018-11-20T10:10:10.262Z,5884.00
2018-11-20T10:11:10.356Z,5196.00
2018-11-20T10:12:10.294Z,4928.00
2018-11-20T10:13:10.197Z,5076.00
2018-11-20T10:14:10.417Z,4452.00
2018-11-20T10:15:10.386Z,4548.00
2018-11-20T10:16:10.393Z,4416.00
2018-11-20T10:17:10.278Z,4320.00
2018-11-20T10:18:10.403Z,4140.00
2018-11-20T10:19:10.267Z,4976.00
2018-11-20T10:20:10.271Z,4916.00
2018-11-20T10:21:10.286Z,4792.00
2018-11-20T10:22:10.501Z,4920.00
2018-11-20T10:23:10.489Z,5956.00
2018-11-20T10:24:10.340Z,5564.00
2018-11-20T10:25:10.371Z,4472.00
2018-11-20T10:26:10.484Z,4388.00
2018-11-20T10:27:10.367Z,4708.00
2018-11-20T10:28:10.651Z,4756.00
2018-11-20T10:29:10.400Z,5080.00
2018-11-20T10:31:10.411Z,4508.00
2018-11-20T10:32:10.433Z,4484.00
2018-11-20T10:33:10.628Z,4212.00
2018-11-20T10:34:10.488Z,4764.00
2018-11-20T10:35:10.511Z,4548.00
2018-11-20T10:36:10.493Z,4308.00
2018-11-20T10:37:10.537Z,4056.00
2018-11-20T10:38:10.563Z,4508.00
2018-11-20T10:39:10.532Z,5900.00
2018-11-20T10:40:10.570Z,6208.00
2018-11-20T10:41:10.671Z,6812.00
2018-11-20T10:42:10.575Z,7428.00
2018-11-20T10:43:10.671Z,5456.00
2018-11-20T10:44:10.715Z,4872.00
2018-11-20T10:45:10.652Z,5196.00
2018-11-20T10:46:10.678Z,4596.00
2018-11-20T10:47:10.630Z,4364.00
2018-11-20T10:48:10.692Z,4760.00
2018-11-20T10:49:10.780Z,5484.00
2018-11-20T10:50:10.686Z,5460.00
2018-11-20T10:51:10.751Z,4672.00
2018-11-20T10:52:10.719Z,5108.00
2018-11-20T10:53:10.873Z,5604.00
2018-11-20T10:54:10.847Z,6236.00
2018-11-20T10:55:10.747Z,6112.00
2018-11-20T10:56:10.873Z,5564.00
2018-11-20T10:57:10.805Z,5128.00
2018-11-20T10:58:10.923Z,5460.00
2018-11-20T10:59:10.911Z,5948.00
2018-11-20T11:00:10.801Z,5272.00
2018-11-20T11:01:10.813Z,5368.00
2018-11-20T11:02:10.830Z,5788.00
2018-11-20T11:03:11.116Z,5304.00
2018-11-20T11:04:11.025Z,6036.00
2018-11-20T11:05:10.999Z,6964.00
2018-11-20T11:06:10.883Z,7588.00
2018-11-20T11:07:11.289Z,7780.00
2018-11-20T11:08:11.183Z,8240.00
2018-11-20T11:09:10.951Z,8488.00
2018-11-20T11:10:11.065Z,8864.00
2018-11-20T11:11:10.976Z,8636.00
2018-11-20T11:12:11.181Z,8040.00
2018-11-20T11:13:11.119Z,7152.00
2018-11-20T11:14:11.121Z,8148.00
2018-11-20T11:15:11.001Z,7900.00
2018-11-20T11:16:11.024Z,7860.00
2018-11-20T11:17:11.047Z,8124.00
2018-11-20T11:18:11.158Z,7236.00
2018-11-20T11:19:11.190Z,7424.00
2018-11-20T11:20:11.077Z,8672.00
2018-11-20T11:21:11.196Z,8220.00
2018-11-20T11:22:11.101Z,7672.00
2018-11-20T11:23:11.298Z,8364.00
2018-11-20T11:24:11.143Z,9460.00
2018-11-20T11:25:11.143Z,10296.00
2018-11-20T11:26:11.174Z,12068.00
2018-11-20T11:27:11.321Z,13948.00
2018-11-20T11:28:11.320Z,15580.00
2018-11-20T11:29:11.587Z,17408.00
2018-11-20T11:30:11.341Z,18464.00
2018-11-20T11:31:11.252Z,17440.00
2018-11-20T11:32:11.527Z,15656.00
2018-11-20T11:33:11.267Z,15752.00
2018-11-20T11:34:11.302Z,14952.00
2018-11-20T11:35:11.304Z,13112.00
2018-11-20T11:36:11.311Z,14212.00
2018-11-20T11:37:11.496Z,14304.00
2018-11-20T11:38:11.336Z,13336.00
2018-11-20T11:39:11.360Z,14280.00
2018-11-20T11:40:11.501Z,13648.00
2018-11-20T11:41:11.510Z,12064.00
2018-11-20T11:42:11.498Z,10776.00
2018-11-20T11:43:11.427Z,10912.00
2018-11-20T11:44:11.435Z,10788.00
2018-11-20T11:45:11.452Z,11148.00
2018-11-20T11:46:11.469Z,10684.00
2018-11-20T11:47:11.623Z,11420.00
2018-11-20T11:48:11.509Z,13524.00
2018-11-20T11:49:11.518Z,14348.00
2018-11-20T11:50:11.531Z,13376.00
2018-11-20T11:51:11.552Z,12752.00
2018-11-20T11:52:11.659Z,10928.00
2018-11-20T11:53:11.607Z,11484.00
2018-11-20T11:54:11.586Z,11160.00
2018-11-20T11:55:11.613Z,10104.00
2018-11-20T11:56:11.619Z,9096.00
2018-11-20T11:57:11.760Z,8520.00
2018-11-20T11:58:11.653Z,9096.00
2018-11-20T11:59:11.679Z,9760.00
2018-11-20T12:00:11.693Z,9480.00
2018-11-20T12:01:11.702Z,8656.00
2018-11-20T12:03:11.743Z,13140.00
2018-11-20T12:04:11.765Z,18208.00
2018-11-20T12:05:11.766Z,20352.00
2018-11-20T12:06:11.785Z,19168.00
2018-11-20T12:07:11.901Z,18304.00
2018-11-20T12:08:11.825Z,16412.00
2018-11-20T12:09:11.952Z,14424.00
2018-11-20T12:10:11.856Z,12388.00
2018-11-20T12:11:11.877Z,11388.00
2018-11-20T12:12:12.027Z,11072.00
2018-11-20T12:14:11.936Z,10144.00
2018-11-20T12:15:11.934Z,9592.00
2018-11-20T12:16:11.954Z,10536.00
2018-11-20T12:17:12.055Z,11184.00
2018-11-20T12:18:11.972Z,9960.00
2018-11-20T12:19:11.989Z,7900.00
2018-11-20T12:20:12.136Z,6872.00
2018-11-20T12:21:12.029Z,6728.00
2018-11-20T12:22:12.268Z,7332.00
2018-11-20T12:23:12.057Z,10200.00
2018-11-20T12:24:12.077Z,11764.00
2018-11-20T12:25:12.092Z,11664.00
2018-11-20T12:26:12.109Z,12404.00
2018-11-20T12:27:12.265Z,9920.00
2018-11-20T12:28:12.145Z,9644.00
2018-11-20T12:29:12.202Z,9652.00
2018-11-20T12:30:13.434Z,11164.00
2018-11-20T12:31:12.309Z,9184.00
2018-11-20T12:32:12.472Z,9056.00
2018-11-20T12:33:12.234Z,8192.00
2018-11-20T12:34:12.222Z,8512.00
2018-11-20T12:35:13.626Z,8632.00
2018-11-20T12:36:14.236Z,8984.00
2018-11-20T12:37:12.424Z,9708.00
2018-11-20T12:38:12.283Z,9488.00
2018-11-20T12:39:12.430Z,9344.00
2018-11-20T12:40:12.336Z,8280.00
2018-11-20T12:41:12.375Z,7496.00
2018-11-20T12:42:12.529Z,8180.00
2018-11-20T12:43:12.384Z,8744.00
2018-11-20T12:44:12.379Z,8420.00
2018-11-20T12:45:13.532Z,8488.00
2018-11-20T12:46:13.261Z,9440.00
2018-11-20T12:47:15.057Z,12500.00
2018-11-20T12:48:12.459Z,14560.00
2018-11-20T12:49:12.453Z,15620.00
2018-11-20T12:50:12.472Z,14652.00
2018-11-20T12:51:12.616Z,16144.00
2018-11-20T12:52:12.692Z,17920.00
2018-11-20T12:53:12.526Z,16560.00